sensor_id;sensor_type;location;lat;lon;timestamp;P1;durP1;ratioP1;P2;durP2;ratioP2
27925;SDS011;15267;47.838;12.128;2023-07-24T00:01:53;9.02;;;7.03;;
27925;SDS011;15267;47.838;12.128;2023-07-24T00:04:19;12.07;;;7.93;;
27925;SDS011;15267;47.838;12.128;2023-07-24T00:06:45;12.82;;;7.60;;
27925;SDS011;15267;47.838;12.128;2023-07-24T00:09:11;10.25;;;7.85;;
27925;SDS011;15267;47.838;12.128;2023-07-24T00:11:37;12.52;;;7.32;;
27925;SDS011;15267;47.838;12.128;2023-07-24T00:14:03;10.27;;;8.40;;
27925;SDS011;15267;47.838;12.128;2023-07-24T00:16:29;12.30;;;8.20;;
27925;SDS011;15267;47.838;12.128;2023-07-24T00:18:55;12.70;;;8.80;;
27925;SDS011;15267;47.838;12.128;2023-07-24T00:21:21;10.60;;;7.45;;
27925;SDS011;15267;47.838;12.128;2023-07-24T00:23:47;12.32;;;8.35;;
27925;SDS011;15267;47.838;12.128;2023-07-24T00:26:13;12.82;;;8.30;;
27925;SDS011;15267;47.838;12.128;2023-07-24T00:28:39;13.13;;;8.10;;
27925;SDS011;15267;47.838;12.128;2023-07-24T00:31:05;12.45;;;9.18;;
27925;SDS011;15267;47.838;12.128;2023-07-24T00:33:31;12.07;;;7.90;;
27925;SDS011;15267;47.838;12.128;2023-07-24T00:35:57;11.00;;;7.70;;
27925;SDS011;15267;47.838;12.128;2023-07-24T00:38:23;11.65;;;7.95;;
27925;SDS011;15267;47.838;12.128;2023-07-24T00:40:49;12.13;;;8.10;;
27925;SDS011;15267;47.838;12.128;2023-07-24T00:43:16;10.88;;;8.02;;
27925;SDS011;15267;47.838;12.128;2023-07-24T00:45:42;11.23;;;8.10;;
27925;SDS011;15267;47.838;12.128;2023-07-24T00:48:08;11.88;;;7.90;;
27925;SDS011;15267;47.838;12.128;2023-07-24T00:50:34;11.00;;;8.13;;
27925;SDS011;15267;47.838;12.128;2023-07-24T00:53:01;12.40;;;8.15;;
27925;SDS011;15267;47.838;12.128;2023-07-24T00:55:27;10.25;;;7.72;;
27925;SDS011;15267;47.838;12.128;2023-07-24T00:57:53;12.85;;;7.95;;
27925;SDS011;15267;47.838;12.128;2023-07-24T01:00:19;11.02;;;8.02;;
27925;SDS011;15267;47.838;12.128;2023-07-24T01:02:45;13.05;;;8.88;;
27925;SDS011;15267;47.838;12.128;2023-07-24T01:05:13;13.07;;;8.23;;
27925;SDS011;15267;47.838;12.128;2023-07-24T01:07:40;10.77;;;8.27;;
27925;SDS011;15267;47.838;12.128;2023-07-24T01:10:06;13.18;;;7.93;;
27925;SDS011;15267;47.838;12.128;2023-07-24T01:12:36;10.55;;;7.72;;
27925;SDS011;15267;47.838;12.128;2023-07-24T01:15:19;11.95;;;8.48;;
27925;SDS011;15267;47.838;12.128;2023-07-24T01:17:50;10.77;;;7.78;;
27925;SDS011;15267;47.838;12.128;2023-07-24T01:20:20;12.85;;;8.52;;
27925;SDS011;15267;47.838;12.128;2023-07-24T01:25:33;11.60;;;8.40;;
27925;SDS011;15267;47.838;12.128;2023-07-24T01:28:00;13.75;;;8.85;;
27925;SDS011;15267;47.838;12.128;2023-07-24T01:30:26;11.63;;;8.38;;
27925;SDS011;15267;47.838;12.128;2023-07-24T01:32:52;13.82;;;8.55;;
27925;SDS011;15267;47.838;12.128;2023-07-24T01:35:18;12.05;;;8.77;;
27925;SDS011;15267;47.838;12.128;2023-07-24T01:37:44;11.75;;;8.50;;
27925;SDS011;15267;47.838;12.128;2023-07-24T01:40:12;10.48;;;8.20;;
27925;SDS011;15267;47.838;12.128;2023-07-24T01:42:38;10.57;;;8.38;;
27925;SDS011;15267;47.838;12.128;2023-07-24T01:45:04;10.75;;;7.88;;
27925;SDS011;15267;47.838;12.128;2023-07-24T01:47:31;11.75;;;8.23;;
27925;SDS011;15267;47.838;12.128;2023-07-24T01:49:56;11.25;;;7.85;;
27925;SDS011;15267;47.838;12.128;2023-07-24T01:52:22;11.98;;;7.97;;
27925;SDS011;15267;47.838;12.128;2023-07-24T01:54:48;11.38;;;8.40;;
27925;SDS011;15267;47.838;12.128;2023-07-24T01:57:15;12.52;;;7.70;;
27925;SDS011;15267;47.838;12.128;2023-07-24T01:59:41;13.02;;;8.50;;
27925;SDS011;15267;47.838;12.128;2023-07-24T02:02:07;14.38;;;8.48;;
27925;SDS011;15267;47.838;12.128;2023-07-24T02:04:33;11.63;;;8.27;;
27925;SDS011;15267;47.838;12.128;2023-07-24T02:06:59;9.73;;;7.88;;
27925;SDS011;15267;47.838;12.128;2023-07-24T02:09:24;11.38;;;7.47;;
27925;SDS011;15267;47.838;12.128;2023-07-24T02:11:50;12.15;;;8.23;;
27925;SDS011;15267;47.838;12.128;2023-07-24T02:14:17;11.73;;;7.95;;
27925;SDS011;15267;47.838;12.128;2023-07-24T02:16:43;10.35;;;7.70;;
27925;SDS011;15267;47.838;12.128;2023-07-24T02:19:09;12.75;;;8.25;;
27925;SDS011;15267;47.838;12.128;2023-07-24T02:21:35;12.43;;;7.65;;
27925;SDS011;15267;47.838;12.128;2023-07-24T02:24:01;12.07;;;7.93;;
27925;SDS011;15267;47.838;12.128;2023-07-24T02:26:27;11.43;;;7.57;;
27925;SDS011;15267;47.838;12.128;2023-07-24T02:28:53;11.52;;;8.05;;
27925;SDS011;15267;47.838;12.128;2023-07-24T02:31:19;10.40;;;8.05;;
27925;SDS011;15267;47.838;12.128;2023-07-24T02:33:45;12.90;;;8.48;;
27925;SDS011;15267;47.838;12.128;2023-07-24T02:36:11;14.23;;;8.65;;
27925;SDS011;15267;47.838;12.128;2023-07-24T02:38:37;14.68;;;8.73;;
27925;SDS011;15267;47.838;12.128;2023-07-24T02:41:03;11.45;;;8.18;;
27925;SDS011;15267;47.838;12.128;2023-07-24T02:43:29;11.15;;;7.95;;
27925;SDS011;15267;47.838;12.128;2023-07-24T02:45:59;10.13;;;7.85;;
27925;SDS011;15267;47.838;12.128;2023-07-24T02:48:26;10.93;;;8.38;;
27925;SDS011;15267;47.838;12.128;2023-07-24T02:50:51;11.38;;;7.70;;
27925;SDS011;15267;47.838;12.128;2023-07-24T02:53:17;11.10;;;8.63;;
27925;SDS011;15267;47.838;12.128;2023-07-24T02:55:43;12.27;;;8.23;;
27925;SDS011;15267;47.838;12.128;2023-07-24T02:58:13;10.30;;;7.65;;
27925;SDS011;15267;47.838;12.128;2023-07-24T03:00:39;11.02;;;7.90;;
27925;SDS011;15267;47.838;12.128;2023-07-24T03:03:05;10.25;;;8.10;;
27925;SDS011;15267;47.838;12.128;2023-07-24T03:05:31;13.02;;;8.63;;
27925;SDS011;15267;47.838;12.128;2023-07-24T03:07:59;11.32;;;8.00;;
27925;SDS011;15267;47.838;12.128;2023-07-24T03:10:25;12.35;;;7.90;;
27925;SDS011;15267;47.838;12.128;2023-07-24T03:12:51;14.82;;;8.50;;
27925;SDS011;15267;47.838;12.128;2023-07-24T03:15:17;11.52;;;8.40;;
27925;SDS011;15267;47.838;12.128;2023-07-24T03:17:43;11.10;;;8.13;;
27925;SDS011;15267;47.838;12.128;2023-07-24T03:20:18;12.20;;;8.68;;
27925;SDS011;15267;47.838;12.128;2023-07-24T03:22:44;11.23;;;8.38;;
27925;SDS011;15267;47.838;12.128;2023-07-24T03:25:10;10.60;;;8.52;;
27925;SDS011;15267;47.838;12.128;2023-07-24T03:27:36;12.00;;;8.40;;
27925;SDS011;15267;47.838;12.128;2023-07-24T03:30:03;12.85;;;8.32;;
27925;SDS011;15267;47.838;12.128;2023-07-24T03:32:29;11.27;;;8.32;;
27925;SDS011;15267;47.838;12.128;2023-07-24T03:34:55;11.68;;;8.10;;
27925;SDS011;15267;47.838;12.128;2023-07-24T03:37:21;11.82;;;8.30;;
27925;SDS011;15267;47.838;12.128;2023-07-24T03:39:47;14.68;;;8.23;;
27925;SDS011;15267;47.838;12.128;2023-07-24T03:42:23;18.75;;;9.20;;
27925;SDS011;15267;47.838;12.128;2023-07-24T03:44:50;14.32;;;8.95;;
27925;SDS011;15267;47.838;12.128;2023-07-24T03:47:16;12.52;;;8.30;;
27925;SDS011;15267;47.838;12.128;2023-07-24T03:49:42;12.35;;;8.73;;
27925;SDS011;15267;47.838;12.128;2023-07-24T03:52:07;13.32;;;8.48;;
27925;SDS011;15267;47.838;12.128;2023-07-24T03:54:33;14.88;;;7.95;;
27925;SDS011;15267;47.838;12.128;2023-07-24T03:56:59;13.57;;;8.40;;
27925;SDS011;15267;47.838;12.128;2023-07-24T03:59:25;11.95;;;8.38;;
27925;SDS011;15267;47.838;12.128;2023-07-24T04:01:51;14.18;;;8.45;;
27925;SDS011;15267;47.838;12.128;2023-07-24T04:04:17;11.80;;;8.68;;
27925;SDS011;15267;47.838;12.128;2023-07-24T04:06:43;10.85;;;8.02;;
27925;SDS011;15267;47.838;12.128;2023-07-24T04:09:09;10.63;;;8.20;;
27925;SDS011;15267;47.838;12.128;2023-07-24T04:11:39;11.95;;;8.07;;
27925;SDS011;15267;47.838;12.128;2023-07-24T04:14:05;11.40;;;8.13;;
27925;SDS011;15267;47.838;12.128;2023-07-24T04:16:31;10.68;;;8.50;;
27925;SDS011;15267;47.838;12.128;2023-07-24T04:18:57;10.35;;;8.23;;
27925;SDS011;15267;47.838;12.128;2023-07-24T04:21:23;12.23;;;8.52;;
27925;SDS011;15267;47.838;12.128;2023-07-24T04:23:49;10.98;;;8.35;;
27925;SDS011;15267;47.838;12.128;2023-07-24T04:26:14;14.43;;;8.25;;
27925;SDS011;15267;47.838;12.128;2023-07-24T04:28:40;12.52;;;8.57;;
27925;SDS011;15267;47.838;12.128;2023-07-24T04:31:06;10.77;;;8.02;;
27925;SDS011;15267;47.838;12.128;2023-07-24T04:33:32;11.57;;;8.15;;
27925;SDS011;15267;47.838;12.128;2023-07-24T04:35:58;13.25;;;8.80;;
27925;SDS011;15267;47.838;12.128;2023-07-24T04:38:24;11.05;;;8.15;;
27925;SDS011;15267;47.838;12.128;2023-07-24T04:40:50;9.43;;;8.07;;
27925;SDS011;15267;47.838;12.128;2023-07-24T04:43:16;10.48;;;8.02;;
27925;SDS011;15267;47.838;12.128;2023-07-24T04:45:42;11.52;;;7.97;;
27925;SDS011;15267;47.838;12.128;2023-07-24T04:48:08;11.00;;;8.27;;
27925;SDS011;15267;47.838;12.128;2023-07-24T04:50:34;12.80;;;8.27;;
27925;SDS011;15267;47.838;12.128;2023-07-24T04:53:00;12.18;;;8.75;;
27925;SDS011;15267;47.838;12.128;2023-07-24T04:55:26;10.48;;;8.07;;
27925;SDS011;15267;47.838;12.128;2023-07-24T04:57:52;10.88;;;8.25;;
27925;SDS011;15267;47.838;12.128;2023-07-24T05:00:18;11.00;;;8.15;;
27925;SDS011;15267;47.838;12.128;2023-07-24T05:02:44;13.38;;;8.80;;
27925;SDS011;15267;47.838;12.128;2023-07-24T05:05:10;12.85;;;8.45;;
27925;SDS011;15267;47.838;12.128;2023-07-24T05:07:36;11.85;;;8.45;;
27925;SDS011;15267;47.838;12.128;2023-07-24T05:10:02;11.45;;;8.38;;
27925;SDS011;15267;47.838;12.128;2023-07-24T05:12:28;11.95;;;8.48;;
27925;SDS011;15267;47.838;12.128;2023-07-24T05:14:54;11.65;;;8.60;;
27925;SDS011;15267;47.838;12.128;2023-07-24T05:17:20;11.70;;;8.18;;
27925;SDS011;15267;47.838;12.128;2023-07-24T05:19:45;11.60;;;8.20;;
27925;SDS011;15267;47.838;12.128;2023-07-24T05:22:11;11.50;;;8.93;;
27925;SDS011;15267;47.838;12.128;2023-07-24T05:24:37;11.30;;;8.35;;
27925;SDS011;15267;47.838;12.128;2023-07-24T05:27:04;13.75;;;9.48;;
27925;SDS011;15267;47.838;12.128;2023-07-24T05:29:30;10.32;;;8.52;;
27925;SDS011;15267;47.838;12.128;2023-07-24T05:31:56;13.07;;;8.50;;
27925;SDS011;15267;47.838;12.128;2023-07-24T05:34:23;13.38;;;9.15;;
27925;SDS011;15267;47.838;12.128;2023-07-24T05:36:49;13.52;;;9.13;;
27925;SDS011;15267;47.838;12.128;2023-07-24T05:39:15;12.02;;;9.18;;
27925;SDS011;15267;47.838;12.128;2023-07-24T05:41:41;12.93;;;8.80;;
27925;SDS011;15267;47.838;12.128;2023-07-24T05:44:07;11.20;;;8.93;;
27925;SDS011;15267;47.838;12.128;2023-07-24T05:46:33;15.35;;;9.18;;
27925;SDS011;15267;47.838;12.128;2023-07-24T05:48:59;12.07;;;9.40;;
27925;SDS011;15267;47.838;12.128;2023-07-24T05:51:28;12.95;;;8.65;;
27925;SDS011;15267;47.838;12.128;2023-07-24T05:53:54;14.07;;;8.52;;
27925;SDS011;15267;47.838;12.128;2023-07-24T05:56:20;11.35;;;9.07;;
27925;SDS011;15267;47.838;12.128;2023-07-24T05:58:46;14.43;;;8.75;;
27925;SDS011;15267;47.838;12.128;2023-07-24T06:01:12;12.43;;;8.90;;
27925;SDS011;15267;47.838;12.128;2023-07-24T06:03:39;13.80;;;10.70;;
27925;SDS011;15267;47.838;12.128;2023-07-24T06:06:05;14.52;;;9.02;;
27925;SDS011;15267;47.838;12.128;2023-07-24T06:08:31;10.25;;;8.43;;
27925;SDS011;15267;47.838;12.128;2023-07-24T06:10:57;11.02;;;8.90;;
27925;SDS011;15267;47.838;12.128;2023-07-24T06:13:23;13.13;;;8.52;;
27925;SDS011;15267;47.838;12.128;2023-07-24T06:15:49;11.60;;;8.20;;
27925;SDS011;15267;47.838;12.128;2023-07-24T06:18:15;15.57;;;8.85;;
27925;SDS011;15267;47.838;12.128;2023-07-24T06:20:41;13.15;;;8.82;;
27925;SDS011;15267;47.838;12.128;2023-07-24T06:23:07;12.73;;;8.98;;
27925;SDS011;15267;47.838;12.128;2023-07-24T06:25:33;95.15;;;11.38;;
27925;SDS011;15267;47.838;12.128;2023-07-24T06:27:59;15.10;;;9.35;;
27925;SDS011;15267;47.838;12.128;2023-07-24T06:30:25;13.35;;;8.02;;
27925;SDS011;15267;47.838;12.128;2023-07-24T06:32:51;12.52;;;8.82;;
27925;SDS011;15267;47.838;12.128;2023-07-24T06:35:17;16.48;;;11.10;;
27925;SDS011;15267;47.838;12.128;2023-07-24T06:37:43;14.07;;;10.27;;
27925;SDS011;15267;47.838;12.128;2023-07-24T06:40:10;14.98;;;8.25;;
27925;SDS011;15267;47.838;12.128;2023-07-24T06:42:36;15.45;;;8.32;;
27925;SDS011;15267;47.838;12.128;2023-07-24T06:45:02;17.55;;;9.32;;
27925;SDS011;15267;47.838;12.128;2023-07-24T06:47:28;12.88;;;8.35;;
27925;SDS011;15267;47.838;12.128;2023-07-24T06:49:54;13.38;;;8.75;;
27925;SDS011;15267;47.838;12.128;2023-07-24T06:52:20;15.65;;;8.80;;
27925;SDS011;15267;47.838;12.128;2023-07-24T06:54:46;16.40;;;9.25;;
27925;SDS011;15267;47.838;12.128;2023-07-24T06:57:12;12.85;;;8.38;;
27925;SDS011;15267;47.838;12.128;2023-07-24T06:59:38;13.05;;;9.32;;
27925;SDS011;15267;47.838;12.128;2023-07-24T07:02:04;13.18;;;8.77;;
27925;SDS011;15267;47.838;12.128;2023-07-24T07:04:30;9.40;;;7.53;;
27925;SDS011;15267;47.838;12.128;2023-07-24T07:06:56;10.77;;;8.93;;
27925;SDS011;15267;47.838;12.128;2023-07-24T07:09:22;10.80;;;8.75;;
27925;SDS011;15267;47.838;12.128;2023-07-24T07:11:48;15.45;;;9.02;;
27925;SDS011;15267;47.838;12.128;2023-07-24T07:14:14;11.70;;;8.48;;
27925;SDS011;15267;47.838;12.128;2023-07-24T07:16:40;12.82;;;10.07;;
27925;SDS011;15267;47.838;12.128;2023-07-24T07:19:06;11.38;;;8.68;;
27925;SDS011;15267;47.838;12.128;2023-07-24T07:21:34;11.60;;;8.45;;
27925;SDS011;15267;47.838;12.128;2023-07-24T07:24:00;12.75;;;8.65;;
27925;SDS011;15267;47.838;12.128;2023-07-24T07:26:26;12.18;;;8.57;;
27925;SDS011;15267;47.838;12.128;2023-07-24T07:28:54;11.65;;;9.05;;
27925;SDS011;15267;47.838;12.128;2023-07-24T07:31:20;17.27;;;9.18;;
27925;SDS011;15267;47.838;12.128;2023-07-24T07:33:46;12.52;;;9.02;;
27925;SDS011;15267;47.838;12.128;2023-07-24T07:36:13;14.35;;;9.68;;
27925;SDS011;15267;47.838;12.128;2023-07-24T07:38:39;12.20;;;9.25;;
27925;SDS011;15267;47.838;12.128;2023-07-24T07:41:05;14.80;;;9.23;;
27925;SDS011;15267;47.838;12.128;2023-07-24T07:43:31;15.65;;;10.48;;
27925;SDS011;15267;47.838;12.128;2023-07-24T07:45:57;16.60;;;11.73;;
27925;SDS011;15267;47.838;12.128;2023-07-24T07:48:24;13.57;;;9.57;;
27925;SDS011;15267;47.838;12.128;2023-07-24T07:50:53;14.60;;;10.18;;
27925;SDS011;15267;47.838;12.128;2023-07-24T07:53:19;15.90;;;9.75;;
27925;SDS011;15267;47.838;12.128;2023-07-24T07:55:45;14.27;;;9.13;;
27925;SDS011;15267;47.838;12.128;2023-07-24T07:58:10;13.63;;;9.30;;
27925;SDS011;15267;47.838;12.128;2023-07-24T08:00:36;15.93;;;9.40;;
27925;SDS011;15267;47.838;12.128;2023-07-24T08:03:04;12.10;;;9.20;;
27925;SDS011;15267;47.838;12.128;2023-07-24T08:05:30;14.65;;;9.15;;
27925;SDS011;15267;47.838;12.128;2023-07-24T08:07:57;14.60;;;9.43;;
27925;SDS011;15267;47.838;12.128;2023-07-24T08:10:23;13.52;;;9.15;;
27925;SDS011;15267;47.838;12.128;2023-07-24T08:12:49;20.02;;;10.25;;
27925;SDS011;15267;47.838;12.128;2023-07-24T08:15:15;12.75;;;9.55;;
27925;SDS011;15267;47.838;12.128;2023-07-24T08:17:41;14.00;;;10.05;;
27925;SDS011;15267;47.838;12.128;2023-07-24T08:20:07;11.85;;;8.85;;
27925;SDS011;15267;47.838;12.128;2023-07-24T08:22:33;13.98;;;9.68;;
27925;SDS011;15267;47.838;12.128;2023-07-24T08:24:59;17.70;;;10.02;;
27925;SDS011;15267;47.838;12.128;2023-07-24T08:27:25;14.88;;;9.43;;
27925;SDS011;15267;47.838;12.128;2023-07-24T08:29:51;12.90;;;9.55;;
27925;SDS011;15267;47.838;12.128;2023-07-24T08:32:20;13.88;;;9.40;;
27925;SDS011;15267;47.838;12.128;2023-07-24T08:34:46;14.85;;;10.25;;
27925;SDS011;15267;47.838;12.128;2023-07-24T08:37:12;14.73;;;10.50;;
27925;SDS011;15267;47.838;12.128;2023-07-24T08:39:38;17.48;;;10.73;;
27925;SDS011;15267;47.838;12.128;2023-07-24T08:42:08;15.68;;;9.80;;
27925;SDS011;15267;47.838;12.128;2023-07-24T08:44:34;14.02;;;10.25;;
27925;SDS011;15267;47.838;12.128;2023-07-24T08:47:00;13.35;;;10.20;;
27925;SDS011;15267;47.838;12.128;2023-07-24T08:49:27;12.20;;;9.00;;
27925;SDS011;15267;47.838;12.128;2023-07-24T08:51:55;15.95;;;9.32;;
27925;SDS011;15267;47.838;12.128;2023-07-24T08:54:21;12.60;;;9.57;;
27925;SDS011;15267;47.838;12.128;2023-07-24T08:56:49;13.95;;;9.32;;
27925;SDS011;15267;47.838;12.128;2023-07-24T08:59:16;11.55;;;7.93;;
27925;SDS011;15267;47.838;12.128;2023-07-24T09:01:42;12.73;;;7.60;;
27925;SDS011;15267;47.838;12.128;2023-07-24T09:04:08;9.32;;;6.97;;
27925;SDS011;15267;47.838;12.128;2023-07-24T09:06:34;8.75;;;6.28;;
27925;SDS011;15267;47.838;12.128;2023-07-24T09:09:00;10.48;;;6.20;;
27925;SDS011;15267;47.838;12.128;2023-07-24T09:11:26;8.52;;;5.95;;
27925;SDS011;15267;47.838;12.128;2023-07-24T09:13:52;13.38;;;5.78;;
27925;SDS011;15267;47.838;12.128;2023-07-24T09:16:25;7.50;;;5.60;;
27925;SDS011;15267;47.838;12.128;2023-07-24T09:18:52;6.78;;;5.35;;
27925;SDS011;15267;47.838;12.128;2023-07-24T09:21:29;7.75;;;5.32;;
27925;SDS011;15267;47.838;12.128;2023-07-24T09:23:55;7.63;;;5.47;;
27925;SDS011;15267;47.838;12.128;2023-07-24T09:26:22;8.73;;;5.97;;
27925;SDS011;15267;47.838;12.128;2023-07-24T09:28:52;8.30;;;5.65;;
27925;SDS011;15267;47.838;12.128;2023-07-24T09:31:18;6.82;;;5.75;;
27925;SDS011;15267;47.838;12.128;2023-07-24T09:33:44;7.80;;;6.10;;
27925;SDS011;15267;47.838;12.128;2023-07-24T09:36:10;7.03;;;5.72;;
27925;SDS011;15267;47.838;12.128;2023-07-24T09:38:36;8.52;;;6.03;;
27925;SDS011;15267;47.838;12.128;2023-07-24T09:41:03;10.60;;;5.80;;
27925;SDS011;15267;47.838;12.128;2023-07-24T09:43:30;8.30;;;5.80;;
27925;SDS011;15267;47.838;12.128;2023-07-24T09:45:56;9.40;;;6.28;;
27925;SDS011;15267;47.838;12.128;2023-07-24T09:48:24;9.68;;;6.28;;
27925;SDS011;15267;47.838;12.128;2023-07-24T09:50:54;10.88;;;6.18;;
27925;SDS011;15267;47.838;12.128;2023-07-24T09:55:57;10.18;;;6.63;;
27925;SDS011;15267;47.838;12.128;2023-07-24T09:58:23;12.10;;;6.78;;
27925;SDS011;15267;47.838;12.128;2023-07-24T10:00:50;11.27;;;7.40;;
27925;SDS011;15267;47.838;12.128;2023-07-24T10:03:16;9.60;;;6.85;;
27925;SDS011;15267;47.838;12.128;2023-07-24T10:05:46;8.48;;;6.60;;
27925;SDS011;15267;47.838;12.128;2023-07-24T10:08:17;9.48;;;6.72;;
27925;SDS011;15267;47.838;12.128;2023-07-24T10:10:43;10.38;;;7.35;;
27925;SDS011;15267;47.838;12.128;2023-07-24T10:13:10;8.23;;;6.75;;
27925;SDS011;15267;47.838;12.128;2023-07-24T10:15:38;8.25;;;6.65;;
27925;SDS011;15267;47.838;12.128;2023-07-24T10:18:07;7.93;;;6.88;;
27925;SDS011;15267;47.838;12.128;2023-07-24T10:20:34;9.35;;;6.78;;
27925;SDS011;15267;47.838;12.128;2023-07-24T10:23:03;8.30;;;6.80;;
27925;SDS011;15267;47.838;12.128;2023-07-24T10:25:30;9.00;;;6.45;;
27925;SDS011;15267;47.838;12.128;2023-07-24T10:28:00;8.00;;;6.18;;
27925;SDS011;15267;47.838;12.128;2023-07-24T10:30:30;8.98;;;6.55;;
27925;SDS011;15267;47.838;12.128;2023-07-24T10:35:41;9.73;;;6.47;;
27925;SDS011;15267;47.838;12.128;2023-07-24T10:38:08;8.05;;;6.28;;
27925;SDS011;15267;47.838;12.128;2023-07-24T10:40:34;8.35;;;6.47;;
27925;SDS011;15267;47.838;12.128;2023-07-24T10:43:03;9.20;;;6.05;;
27925;SDS011;15267;47.838;12.128;2023-07-24T10:48:05;9.30;;;7.10;;
27925;SDS011;15267;47.838;12.128;2023-07-24T10:50:41;7.88;;;6.90;;
27925;SDS011;15267;47.838;12.128;2023-07-24T10:53:08;8.38;;;6.53;;
27925;SDS011;15267;47.838;12.128;2023-07-24T10:55:34;9.57;;;6.68;;
27925;SDS011;15267;47.838;12.128;2023-07-24T10:58:00;9.30;;;6.95;;
27925;SDS011;15267;47.838;12.128;2023-07-24T11:00:27;8.98;;;6.78;;
27925;SDS011;15267;47.838;12.128;2023-07-24T11:02:53;8.45;;;6.57;;
27925;SDS011;15267;47.838;12.128;2023-07-24T11:05:20;7.80;;;6.88;;
27925;SDS011;15267;47.838;12.128;2023-07-24T11:07:47;10.73;;;6.25;;
27925;SDS011;15267;47.838;12.128;2023-07-24T11:10:19;10.13;;;7.05;;
27925;SDS011;15267;47.838;12.128;2023-07-24T11:12:46;10.60;;;6.60;;
27925;SDS011;15267;47.838;12.128;2023-07-24T11:15:12;10.20;;;6.75;;
27925;SDS011;15267;47.838;12.128;2023-07-24T11:17:39;10.55;;;6.47;;
27925;SDS011;15267;47.838;12.128;2023-07-24T11:20:06;8.93;;;6.32;;
27925;SDS011;15267;47.838;12.128;2023-07-24T11:22:32;7.68;;;6.45;;
27925;SDS011;15267;47.838;12.128;2023-07-24T11:24:59;8.10;;;6.47;;
27925;SDS011;15267;47.838;12.128;2023-07-24T11:27:26;7.45;;;6.07;;
27925;SDS011;15267;47.838;12.128;2023-07-24T11:29:52;9.63;;;6.22;;
27925;SDS011;15267;47.838;12.128;2023-07-24T11:32:18;8.35;;;6.43;;
27925;SDS011;15267;47.838;12.128;2023-07-24T11:34:45;10.57;;;6.15;;
27925;SDS011;15267;47.838;12.128;2023-07-24T11:37:11;9.77;;;6.53;;
27925;SDS011;15267;47.838;12.128;2023-07-24T11:39:37;8.45;;;6.55;;
27925;SDS011;15267;47.838;12.128;2023-07-24T11:42:03;8.25;;;6.80;;
27925;SDS011;15267;47.838;12.128;2023-07-24T11:44:30;8.40;;;6.65;;
27925;SDS011;15267;47.838;12.128;2023-07-24T11:47:03;7.70;;;6.20;;
27925;SDS011;15267;47.838;12.128;2023-07-24T11:49:29;10.07;;;6.22;;
27925;SDS011;15267;47.838;12.128;2023-07-24T11:52:03;8.40;;;6.65;;
27925;SDS011;15267;47.838;12.128;2023-07-24T11:54:29;7.80;;;6.45;;
27925;SDS011;15267;47.838;12.128;2023-07-24T11:56:56;8.23;;;6.57;;
27925;SDS011;15267;47.838;12.128;2023-07-24T11:59:22;6.93;;;6.22;;
27925;SDS011;15267;47.838;12.128;2023-07-24T12:01:48;8.85;;;6.70;;
27925;SDS011;15267;47.838;12.128;2023-07-24T12:04:14;10.77;;;6.80;;
27925;SDS011;15267;47.838;12.128;2023-07-24T12:06:40;7.85;;;6.38;;
27925;SDS011;15267;47.838;12.128;2023-07-24T12:09:07;7.72;;;6.25;;
27925;SDS011;15267;47.838;12.128;2023-07-24T12:11:33;7.35;;;5.93;;
27925;SDS011;15267;47.838;12.128;2023-07-24T12:13:59;9.75;;;6.93;;
27925;SDS011;15267;47.838;12.128;2023-07-24T12:16:25;9.25;;;7.28;;
27925;SDS011;15267;47.838;12.128;2023-07-24T12:18:51;8.05;;;6.75;;
27925;SDS011;15267;47.838;12.128;2023-07-24T12:21:17;10.23;;;7.07;;
27925;SDS011;15267;47.838;12.128;2023-07-24T12:23:43;8.00;;;6.63;;
27925;SDS011;15267;47.838;12.128;2023-07-24T12:26:09;8.30;;;6.57;;
27925;SDS011;15267;47.838;12.128;2023-07-24T12:28:35;8.40;;;6.70;;
27925;SDS011;15267;47.838;12.128;2023-07-24T12:31:01;7.97;;;7.18;;
27925;SDS011;15267;47.838;12.128;2023-07-24T12:33:27;10.95;;;7.03;;
27925;SDS011;15267;47.838;12.128;2023-07-24T12:35:53;8.52;;;6.95;;
27925;SDS011;15267;47.838;12.128;2023-07-24T12:38:19;8.35;;;6.30;;
27925;SDS011;15267;47.838;12.128;2023-07-24T12:40:45;9.95;;;6.78;;
27925;SDS011;15267;47.838;12.128;2023-07-24T12:43:11;9.57;;;6.63;;
27925;SDS011;15267;47.838;12.128;2023-07-24T12:45:37;10.80;;;7.15;;
27925;SDS011;15267;47.838;12.128;2023-07-24T12:48:03;10.65;;;6.68;;
27925;SDS011;15267;47.838;12.128;2023-07-24T12:50:29;8.07;;;7.13;;
27925;SDS011;15267;47.838;12.128;2023-07-24T12:52:55;9.07;;;7.45;;
27925;SDS011;15267;47.838;12.128;2023-07-24T12:55:21;9.55;;;7.10;;
27925;SDS011;15267;47.838;12.128;2023-07-24T12:57:47;8.63;;;7.45;;
27925;SDS011;15267;47.838;12.128;2023-07-24T13:00:13;9.30;;;7.40;;
27925;SDS011;15267;47.838;12.128;2023-07-24T13:02:39;8.70;;;7.10;;
27925;SDS011;15267;47.838;12.128;2023-07-24T13:05:05;10.07;;;7.50;;
27925;SDS011;15267;47.838;12.128;2023-07-24T13:07:31;11.63;;;8.38;;
27925;SDS011;15267;47.838;12.128;2023-07-24T13:09:57;10.98;;;8.07;;
27925;SDS011;15267;47.838;12.128;2023-07-24T13:12:23;9.75;;;7.45;;
27925;SDS011;15267;47.838;12.128;2023-07-24T13:14:49;11.02;;;7.95;;
27925;SDS011;15267;47.838;12.128;2023-07-24T13:17:16;10.13;;;7.85;;
27925;SDS011;15267;47.838;12.128;2023-07-24T13:19:42;10.35;;;7.82;;
27925;SDS011;15267;47.838;12.128;2023-07-24T13:22:08;10.63;;;8.20;;
27925;SDS011;15267;47.838;12.128;2023-07-24T13:24:34;11.23;;;8.05;;
27925;SDS011;15267;47.838;12.128;2023-07-24T13:27:00;11.75;;;7.70;;
27925;SDS011;15267;47.838;12.128;2023-07-24T13:29:26;11.18;;;8.40;;
27925;SDS011;15267;47.838;12.128;2023-07-24T13:31:52;17.88;;;7.03;;
27925;SDS011;15267;47.838;12.128;2023-07-24T13:34:18;11.95;;;5.63;;
27925;SDS011;15267;47.838;12.128;2023-07-24T13:36:46;14.82;;;5.43;;
27925;SDS011;15267;47.838;12.128;2023-07-24T13:39:12;7.93;;;4.70;;
27925;SDS011;15267;47.838;12.128;2023-07-24T13:41:38;7.75;;;4.93;;
27925;SDS011;15267;47.838;12.128;2023-07-24T13:44:04;9.60;;;4.93;;
27925;SDS011;15267;47.838;12.128;2023-07-24T13:46:30;9.07;;;4.97;;
27925;SDS011;15267;47.838;12.128;2023-07-24T13:48:56;9.73;;;5.50;;
27925;SDS011;15267;47.838;12.128;2023-07-24T13:51:22;8.50;;;5.53;;
27925;SDS011;15267;47.838;12.128;2023-07-24T13:53:48;8.55;;;5.45;;
27925;SDS011;15267;47.838;12.128;2023-07-24T13:56:16;11.55;;;5.35;;
27925;SDS011;15267;47.838;12.128;2023-07-24T13:58:43;15.13;;;5.70;;
27925;SDS011;15267;47.838;12.128;2023-07-24T14:01:09;10.18;;;6.72;;
27925;SDS011;15267;47.838;12.128;2023-07-24T14:03:35;10.55;;;6.63;;
27925;SDS011;15267;47.838;12.128;2023-07-24T14:06:02;11.05;;;6.97;;
27925;SDS011;15267;47.838;12.128;2023-07-24T14:08:28;10.50;;;6.90;;
27925;SDS011;15267;47.838;12.128;2023-07-24T14:10:53;13.07;;;7.75;;
27925;SDS011;15267;47.838;12.128;2023-07-24T14:13:19;10.40;;;6.05;;
27925;SDS011;15267;47.838;12.128;2023-07-24T14:15:45;8.45;;;4.90;;
27925;SDS011;15267;47.838;12.128;2023-07-24T14:18:11;6.68;;;5.00;;
27925;SDS011;15267;47.838;12.128;2023-07-24T14:20:37;6.10;;;4.65;;
27925;SDS011;15267;47.838;12.128;2023-07-24T14:23:05;6.18;;;4.45;;
27925;SDS011;15267;47.838;12.128;2023-07-24T14:25:31;6.57;;;4.45;;
27925;SDS011;15267;47.838;12.128;2023-07-24T14:27:57;7.00;;;4.65;;
27925;SDS011;15267;47.838;12.128;2023-07-24T14:30:23;5.25;;;3.92;;